LICR/REG METAR and TAF weather

Enter ICAO airport designator
Station Type Date Time Source
LICR METAR 2020/09/25 07:50 UTC NOAA

LICR 250750Z 24003KT 170V280 CAVOK 27/20 Q1010


Station Type Date Time Source
LICR Decoded METAR 2020/09/25 07:50 UTC NOAA

Reggio Calabria, Italy (LICR) 38-04N 015-39E 21M
Sep 25, 2020 - 03:50 AM EDT / 2020.09.25 0750 UTC
Wind: from the WSW (240 degrees) at 3 MPH (3 KT) (direction variable):0
Visibility: greater than 7 mile(s):0
Temperature: 80 F (27 C)
Dew Point: 68 F (20 C)
Relative Humidity: 65%
Pressure (altimeter): 29.83 in. Hg (1010 hPa)
ob: LICR 250750Z 24003KT 170V280 CAVOK 27/20 Q1010
cycle: 8

Station Type Date Time Source
LICR TAF 2020/09/25 06:21 UTC NOAA

TAF LICR 250500Z 2506/2606 VRB05KT 9999 SCT030
BECMG 2515/2518 34015KT
TEMPO 2518/2606 SHRA

Example: see airport list